createdAt,value
2023-07-01T00:01:43.617Z,97532.02
2023-07-01T00:04:45.294Z,97529.02
2023-07-01T00:07:47.900Z,97529.14
2023-07-01T00:10:49.783Z,97525.96
2023-07-01T00:13:51.641Z,97523.27
2023-07-01T00:16:55.430Z,97519.05
2023-07-01T00:19:57.011Z,97522.27
2023-07-01T00:22:58.597Z,97523.52
2023-07-01T00:26:00.562Z,97523.32
2023-07-01T00:29:02.155Z,97524.52
2023-07-01T00:32:03.912Z,97521.80
2023-07-01T00:35:05.772Z,97520.06
2023-07-01T00:38:07.422Z,97521.75
2023-07-01T00:41:08.969Z,97519.90
2023-07-01T00:44:10.602Z,97519.77
2023-07-01T00:47:12.896Z,97519.40
2023-07-01T00:50:14.448Z,97518.06
2023-07-01T00:53:16.545Z,97523.19
2023-07-01T00:56:18.148Z,97524.25
2023-07-01T00:59:19.739Z,97522.05
2023-07-01T01:02:23.834Z,97523.63
2023-07-01T01:05:38.555Z,97522.80
2023-07-01T01:08:47.757Z,97525.41
2023-07-01T01:11:53.721Z,97516.21
2023-07-01T01:14:55.603Z,97511.67
2023-07-01T01:18:03.664Z,97509.77
2023-07-01T01:21:06.157Z,97511.27
2023-07-01T01:24:09.196Z,97510.00
2023-07-01T01:27:13.513Z,97510.09
2023-07-01T01:30:15.258Z,97514.42
2023-07-01T01:33:16.851Z,97515.61
2023-07-01T01:36:22.084Z,97514.58
2023-07-01T01:39:30.318Z,97510.27
2023-07-01T01:42:34.742Z,97512.42
2023-07-01T01:45:37.277Z,97502.70
2023-07-01T01:48:38.920Z,97491.85
2023-07-01T01:51:41.425Z,97496.77
2023-07-01T01:54:46.752Z,97493.95
2023-07-01T01:57:49.838Z,97500.93
2023-07-01T02:00:51.454Z,97504.56
2023-07-01T02:03:53.219Z,97502.03
2023-07-01T02:06:54.862Z,97498.09
2023-07-01T02:09:56.525Z,97491.30
2023-07-01T02:12:58.324Z,97494.63
2023-07-01T02:16:00.224Z,97493.63
2023-07-01T02:19:01.777Z,97492.54
2023-07-01T02:22:03.457Z,97485.82
2023-07-01T02:25:05.458Z,97481.52
2023-07-01T02:28:07.076Z,97477.65
2023-07-01T02:31:08.730Z,97473.30
2023-07-01T02:34:10.348Z,97480.95
2023-07-01T02:37:11.903Z,97478.54
2023-07-01T02:40:13.535Z,97477.38
2023-07-01T02:43:15.155Z,97468.16
2023-07-01T02:46:16.764Z,97468.95
2023-07-01T02:49:18.470Z,97472.94
2023-07-01T02:52:20.248Z,97467.02
2023-07-01T02:55:21.833Z,97465.91
2023-07-01T02:58:23.732Z,97458.48
2023-07-01T03:01:25.393Z,97457.50
2023-07-01T03:04:27.050Z,97457.17
2023-07-01T03:07:28.706Z,97458.54
2023-07-01T03:10:30.398Z,97455.14
2023-07-01T03:13:32.021Z,97460.70
2023-07-01T03:16:33.780Z,97460.90
2023-07-01T03:19:35.458Z,97462.46
2023-07-01T03:22:37.167Z,97466.48
2023-07-01T03:25:40.079Z,97469.56
2023-07-01T03:28:41.667Z,97466.94
2023-07-01T03:31:43.344Z,97465.52
2023-07-01T03:34:44.973Z,97462.30
2023-07-01T03:37:46.751Z,97463.52
2023-07-01T03:40:48.702Z,97464.30
2023-07-01T03:43:50.620Z,97465.17
2023-07-01T03:46:52.308Z,97463.31
2023-07-01T03:49:53.849Z,97468.15
2023-07-01T03:52:55.348Z,97474.95
2023-07-01T03:55:57.127Z,97474.62
2023-07-01T03:58:58.683Z,97471.45
2023-07-01T04:02:01.285Z,97466.68
2023-07-01T04:05:10.429Z,97461.55
2023-07-01T04:08:12.040Z,97455.46
2023-07-01T04:11:13.580Z,97452.36
2023-07-01T04:14:15.759Z,97449.85
2023-07-01T04:17:17.307Z,97449.13
2023-07-01T04:20:21.583Z,97450.66
2023-07-01T04:23:23.144Z,97449.94
2023-07-01T04:26:27.118Z,97450.43
2023-07-01T04:29:28.700Z,97452.73
2023-07-01T04:32:30.341Z,97449.30
2023-07-01T04:35:32.018Z,97450.09
2023-07-01T04:38:33.677Z,97450.56
2023-07-01T04:41:35.246Z,97442.09
2023-07-01T04:44:36.886Z,97442.69
2023-07-01T04:47:39.016Z,97445.49
2023-07-01T04:50:40.588Z,97442.77
2023-07-01T04:53:42.159Z,97442.51
2023-07-01T04:56:43.708Z,97438.53
2023-07-01T04:59:45.309Z,97436.95
2023-07-01T05:02:47.111Z,97444.02
2023-07-01T05:05:48.841Z,97449.84
2023-07-01T05:08:50.496Z,97447.39
2023-07-01T05:11:52.066Z,97451.74
2023-07-01T05:14:54.359Z,97460.85
2023-07-01T05:17:56.060Z,97466.23
2023-07-01T05:20:57.707Z,97467.98
2023-07-01T05:23:59.399Z,97469.45
2023-07-01T05:27:00.931Z,97469.09
2023-07-01T05:30:02.584Z,97476.06
2023-07-01T05:33:04.875Z,97473.84
2023-07-01T05:36:06.603Z,97476.98
2023-07-01T05:39:08.473Z,97480.23
2023-07-01T05:42:10.295Z,97480.26
2023-07-01T05:45:12.180Z,97481.63
2023-07-01T05:48:13.848Z,97480.26
2023-07-01T05:51:15.442Z,97480.02
2023-07-01T05:54:21.378Z,97478.17
2023-07-01T05:57:23.246Z,97478.10
2023-07-01T06:00:24.884Z,97474.92
2023-07-01T06:03:26.499Z,97472.02
2023-07-01T06:06:28.149Z,97476.83
2023-07-01T06:09:29.845Z,97477.09
2023-07-01T06:12:31.494Z,97476.55
2023-07-01T06:15:33.060Z,97481.33
2023-07-01T06:18:34.665Z,97483.81
2023-07-01T06:21:36.174Z,97484.52
2023-07-01T06:24:37.772Z,97490.02
2023-07-01T06:27:39.450Z,97489.20
2023-07-01T06:30:41.108Z,97490.59
2023-07-01T06:33:43.985Z,97493.69
2023-07-01T06:36:45.629Z,97490.08
2023-07-01T06:39:47.264Z,97492.69
2023-07-01T06:42:48.933Z,97498.36
2023-07-01T06:45:50.530Z,97495.70
2023-07-01T06:48:52.072Z,97493.85
2023-07-01T06:51:53.596Z,97491.03
2023-07-01T06:54:55.183Z,97494.05
2023-07-01T06:57:57.053Z,97493.00
2023-07-01T07:00:58.748Z,97493.59
2023-07-01T07:04:00.444Z,97491.30
2023-07-01T07:07:02.095Z,97487.05
2023-07-01T07:10:04.051Z,97489.41
2023-07-01T07:13:05.701Z,97490.21
2023-07-01T07:16:07.518Z,97489.05
2023-07-01T07:19:09.256Z,97490.96
2023-07-01T07:22:10.806Z,97492.08
2023-07-01T07:25:18.798Z,97493.36
2023-07-01T07:28:20.646Z,97491.08
2023-07-01T07:31:22.204Z,97490.79
2023-07-01T07:34:24.428Z,97493.93
2023-07-01T07:37:26.049Z,97491.48
2023-07-01T07:40:27.683Z,97490.12
2023-07-01T07:43:30.244Z,97491.75
2023-07-01T07:46:33.947Z,97485.08
2023-07-01T07:49:35.564Z,97484.20
2023-07-01T07:52:37.352Z,97487.20
2023-07-01T07:55:39.084Z,97483.58
2023-07-01T07:58:41.458Z,97485.04
2023-07-01T08:01:43.138Z,97477.99
2023-07-01T08:04:44.921Z,97476.91
2023-07-01T08:07:47.446Z,97479.03
2023-07-01T08:10:49.417Z,97480.16
2023-07-01T08:13:51.204Z,97481.30
2023-07-01T08:16:56.409Z,97483.88
2023-07-01T08:19:59.286Z,97483.96
2023-07-01T08:23:00.975Z,97483.31
2023-07-01T08:26:03.568Z,97480.21
2023-07-01T08:29:06.923Z,97479.55
2023-07-01T08:32:08.573Z,97479.21
2023-07-01T08:35:10.200Z,97480.04
2023-07-01T08:38:11.757Z,97480.69
2023-07-01T08:41:16.550Z,97477.54
2023-07-01T08:44:19.386Z,97478.59
2023-07-01T08:47:21.704Z,97480.17
2023-07-01T08:50:23.675Z,97480.85
2023-07-01T08:53:25.811Z,97476.11
2023-07-01T08:56:27.662Z,97472.20
2023-07-01T08:59:29.391Z,97476.04
2023-07-01T09:02:31.755Z,97477.74
2023-07-01T09:05:33.430Z,97478.03
2023-07-01T09:08:41.021Z,97472.84
2023-07-01T09:11:42.662Z,97470.48
2023-07-01T09:14:56.683Z,97466.46
2023-07-01T09:17:58.345Z,97465.70
2023-07-01T09:21:00.147Z,97467.13
2023-07-01T09:24:02.509Z,97461.38
2023-07-01T09:27:04.184Z,97462.66
2023-07-01T09:30:20.631Z,97460.35
2023-07-01T09:33:22.522Z,97458.48
2023-07-01T09:36:25.287Z,97457.38
2023-07-01T09:39:33.435Z,97460.85
2023-07-01T09:42:49.776Z,97460.56
2023-07-01T09:45:55.378Z,97459.48
2023-07-01T09:48:57.098Z,97459.18
2023-07-01T09:52:00.885Z,97461.21
2023-07-01T09:55:03.355Z,97461.33
2023-07-01T09:58:05.220Z,97458.58
2023-07-01T10:01:08.588Z,97456.88
2023-07-01T10:04:10.850Z,97454.08
2023-07-01T10:07:12.701Z,97454.15
2023-07-01T10:10:16.642Z,97454.14
2023-07-01T10:13:18.454Z,97453.36
2023-07-01T10:16:20.375Z,97449.24
2023-07-01T10:19:26.152Z,97450.67
2023-07-01T10:22:32.056Z,97447.88
2023-07-01T10:25:35.007Z,97445.30
2023-07-01T10:28:36.832Z,97442.39
2023-07-01T10:31:38.894Z,97436.70
2023-07-01T10:34:52.879Z,97437.00
2023-07-01T10:38:13.456Z,97433.04
2023-07-01T10:41:35.226Z,97431.27
2023-07-01T10:44:37.030Z,97427.58
2023-07-01T10:47:38.861Z,97422.32
2023-07-01T10:50:58.999Z,97417.89
2023-07-01T10:54:05.038Z,97417.70
2023-07-01T10:57:10.495Z,97414.44
2023-07-01T11:00:35.616Z,97412.52
2023-07-01T11:03:37.966Z,97411.38
2023-07-01T11:07:00.369Z,97406.07
2023-07-01T11:10:04.806Z,97403.11
2023-07-01T11:13:06.657Z,97403.00
2023-07-01T11:16:10.520Z,97397.48
2023-07-01T11:19:15.569Z,97399.77
2023-07-01T11:22:17.528Z,97394.71
2023-07-01T11:25:19.318Z,97393.63
2023-07-01T11:28:34.774Z,97385.86
2023-07-01T11:31:40.642Z,97381.31
2023-07-01T11:34:43.622Z,97371.65
2023-07-01T11:37:47.969Z,97375.64
2023-07-01T11:40:50.436Z,97373.26
2023-07-01T11:43:53.473Z,97372.30
2023-07-01T11:46:55.732Z,97374.02
2023-07-01T11:50:03.654Z,97371.05
2023-07-01T11:53:06.194Z,97367.97
2023-07-01T11:56:16.682Z,97365.55
2023-07-01T11:59:31.072Z,97358.56
2023-07-01T12:02:36.457Z,97355.62
2023-07-01T12:05:38.578Z,97354.82
2023-07-01T12:09:07.562Z,97354.79
2023-07-01T12:12:35.316Z,97353.70
2023-07-01T12:15:53.974Z,97353.73
2023-07-01T12:19:04.347Z,97353.05
2023-07-01T12:22:07.002Z,97352.55
2023-07-01T12:25:08.909Z,97354.83
2023-07-01T12:28:11.371Z,97351.77
2023-07-01T12:31:13.445Z,97354.77
2023-07-01T12:34:16.196Z,97349.82
2023-07-01T12:37:18.082Z,97350.34
2023-07-01T12:40:20.161Z,97349.05
2023-07-01T12:43:23.093Z,97343.54
2023-07-01T12:46:24.898Z,97348.31
2023-07-01T12:49:27.735Z,97341.10
2023-07-01T12:52:34.017Z,97342.35
2023-07-01T12:55:35.779Z,97339.23
2023-07-01T12:58:41.544Z,97333.88
2023-07-01T13:01:44.144Z,97327.02
2023-07-01T13:04:46.029Z,97320.19
2023-07-01T13:07:49.183Z,97318.71
2023-07-01T13:10:51.211Z,97318.39
2023-07-01T13:13:53.212Z,97315.23
2023-07-01T13:16:55.446Z,97313.99
2023-07-01T13:19:57.999Z,97308.98
2023-07-01T13:23:01.559Z,97306.38
2023-07-01T13:26:03.428Z,97307.29
2023-07-01T13:29:09.504Z,97304.64
2023-07-01T13:32:11.349Z,97307.28
2023-07-01T13:35:18.644Z,97307.14
2023-07-01T13:38:20.716Z,97305.26
2023-07-01T13:41:23.828Z,97300.31
2023-07-01T13:44:26.356Z,97296.18
2023-07-01T13:47:37.598Z,97294.84
2023-07-01T13:50:39.714Z,97288.92
2023-07-01T13:53:41.710Z,97285.73
2023-07-01T13:56:44.134Z,97284.16
2023-07-01T13:59:46.183Z,97280.91
2023-07-01T14:02:48.705Z,97269.02
2023-07-01T14:05:54.117Z,97269.23
2023-07-01T14:08:57.112Z,97264.85
2023-07-01T14:11:59.442Z,97260.99
2023-07-01T14:15:05.086Z,97262.71
2023-07-01T14:18:27.362Z,97257.38
2023-07-01T14:21:30.740Z,97248.70
2023-07-01T14:24:34.277Z,97243.38
2023-07-01T14:27:36.220Z,97243.63
2023-07-01T14:30:46.862Z,97243.50
2023-07-01T14:33:55.931Z,97238.83
2023-07-01T14:36:58.940Z,97237.34
2023-07-01T14:40:00.914Z,97234.64
2023-07-01T14:43:06.527Z,97239.08
2023-07-01T14:46:08.384Z,97242.40
2023-07-01T14:49:10.312Z,97238.36
2023-07-01T14:52:12.768Z,97234.79
2023-07-01T14:55:15.398Z,97234.84
2023-07-01T14:58:18.274Z,97237.04
2023-07-01T15:01:21.206Z,97235.33
2023-07-01T15:04:23.260Z,97234.95
2023-07-01T15:07:25.162Z,97226.80
2023-07-01T15:10:27.026Z,97230.91
2023-07-01T15:13:32.828Z,97231.88
2023-07-01T15:16:35.045Z,97227.77
2023-07-01T15:19:36.884Z,97228.38
2023-07-01T15:22:39.469Z,97230.82
2023-07-01T15:25:44.329Z,97232.02
2023-07-01T15:28:46.902Z,97227.86
2023-07-01T15:31:48.775Z,97228.56
2023-07-01T15:34:51.101Z,97223.86
2023-07-01T15:37:53.010Z,97220.57
2023-07-01T15:40:55.088Z,97226.58
2023-07-01T15:43:59.896Z,97222.92
2023-07-01T15:47:04.536Z,97221.83
2023-07-01T15:50:06.779Z,97223.14
2023-07-01T15:53:08.511Z,97219.91
2023-07-01T15:56:10.481Z,97217.82
2023-07-01T15:59:12.666Z,97217.14
2023-07-01T16:02:14.807Z,97214.59
2023-07-01T16:05:17.127Z,97214.83
2023-07-01T16:08:19.400Z,97212.06
2023-07-01T16:11:31.082Z,97210.52
2023-07-01T16:14:33.213Z,97211.88
2023-07-01T16:17:38.697Z,97212.06
2023-07-01T16:20:40.555Z,97209.45
2023-07-01T16:23:49.366Z,97204.63
2023-07-01T16:26:51.196Z,97207.91
2023-07-01T16:30:00.318Z,97202.48
2023-07-01T16:33:02.579Z,97200.63
2023-07-01T16:36:04.357Z,97199.98
2023-07-01T16:39:12.890Z,97201.35
2023-07-01T16:42:16.561Z,97200.92
2023-07-01T16:45:32.036Z,97204.92
2023-07-01T16:48:55.008Z,97201.60
2023-07-01T16:51:57.016Z,97204.33
2023-07-01T16:54:59.689Z,97203.20
2023-07-01T16:58:01.960Z,97201.25
2023-07-01T17:01:04.803Z,97197.26
2023-07-01T17:04:07.047Z,97194.61
2023-07-01T17:07:13.947Z,97193.61
2023-07-01T17:10:34.478Z,97195.83
2023-07-01T17:13:39.596Z,97191.27
2023-07-01T17:16:41.724Z,97196.14
2023-07-01T17:19:43.719Z,97194.65
2023-07-01T17:22:45.610Z,97192.73
2023-07-01T17:25:48.436Z,97188.85
2023-07-01T17:28:51.567Z,97192.09
2023-07-01T17:31:53.724Z,97190.94
2023-07-01T17:35:05.629Z,97190.71
2023-07-01T17:38:07.689Z,97192.89
2023-07-01T17:41:09.546Z,97195.40
2023-07-01T17:44:11.649Z,97191.40
2023-07-01T17:47:13.495Z,97194.86
2023-07-01T17:50:21.347Z,97192.80
2023-07-01T17:53:23.732Z,97191.34
2023-07-01T17:56:25.625Z,97185.10
2023-07-01T17:59:27.384Z,97183.98
2023-07-01T18:02:29.467Z,97186.02
2023-07-01T18:05:31.995Z,97186.80
2023-07-01T18:08:33.959Z,97194.11
2023-07-01T18:11:35.853Z,97192.80
2023-07-01T18:14:37.720Z,97193.58
2023-07-01T18:17:40.986Z,97195.67
2023-07-01T18:20:54.021Z,97200.16
2023-07-01T18:23:57.927Z,97197.73
2023-07-01T18:27:03.780Z,97189.39
2023-07-01T18:30:14.745Z,97189.62
2023-07-01T18:33:17.408Z,97189.45
2023-07-01T18:36:19.747Z,97187.35
2023-07-01T18:39:21.998Z,97186.38
2023-07-01T18:42:23.805Z,97187.30
2023-07-01T18:45:25.666Z,97187.47
2023-07-01T18:48:27.548Z,97194.13
2023-07-01T18:51:30.095Z,97202.43
2023-07-01T18:54:33.522Z,97201.20
2023-07-01T18:57:36.745Z,97207.54
2023-07-01T19:00:44.084Z,97209.79
2023-07-01T19:03:45.933Z,97209.41
2023-07-01T19:06:47.781Z,97215.13
2023-07-01T19:09:49.561Z,97218.60
2023-07-01T19:12:51.291Z,97221.89
2023-07-01T19:15:53.092Z,97224.71
2023-07-01T19:18:54.903Z,97226.70
2023-07-01T19:21:56.735Z,97226.46
2023-07-01T19:24:58.579Z,97228.30
2023-07-01T19:28:00.600Z,97232.95
2023-07-01T19:31:02.714Z,97225.67
2023-07-01T19:34:04.491Z,97225.13
2023-07-01T19:37:06.796Z,97229.52
2023-07-01T19:40:08.873Z,97228.33
2023-07-01T19:43:10.764Z,97230.09
2023-07-01T19:46:12.590Z,97233.83
2023-07-01T19:49:15.957Z,97230.45
2023-07-01T19:52:17.926Z,97230.38
2023-07-01T19:55:21.749Z,97226.98
2023-07-01T19:58:25.350Z,97232.52
2023-07-01T20:01:27.105Z,97232.45
2023-07-01T20:04:28.968Z,97237.41
2023-07-01T20:07:32.775Z,97235.63
2023-07-01T20:10:34.699Z,97236.89
2023-07-01T20:13:36.776Z,97234.48
2023-07-01T20:16:38.766Z,97239.05
2023-07-01T20:19:40.471Z,97241.59
2023-07-01T20:22:42.092Z,97241.59
2023-07-01T20:25:43.759Z,97241.20
2023-07-01T20:28:45.545Z,97240.66
2023-07-01T20:31:47.215Z,97241.27
2023-07-01T20:34:49.522Z,97240.55
2023-07-01T20:37:52.041Z,97236.73
2023-07-01T20:40:53.704Z,97243.90
2023-07-01T20:43:55.397Z,97243.42
2023-07-01T20:46:57.029Z,97243.17
2023-07-01T20:49:58.862Z,97247.80
2023-07-01T20:53:00.473Z,97248.25
2023-07-01T20:56:02.123Z,97255.45
2023-07-01T20:59:03.949Z,97259.47
2023-07-01T21:02:05.674Z,97260.48
2023-07-01T21:05:07.551Z,97259.48
2023-07-01T21:08:09.093Z,97258.30
2023-07-01T21:11:10.890Z,97257.92
2023-07-01T21:14:13.457Z,97252.57
2023-07-01T21:17:16.668Z,97255.60
2023-07-01T21:20:18.909Z,97252.91
2023-07-01T21:23:20.488Z,97252.19
2023-07-01T21:26:23.242Z,97253.32
2023-07-01T21:29:25.414Z,97255.08
2023-07-01T21:32:27.087Z,97253.66
2023-07-01T21:35:29.857Z,97251.45
2023-07-01T21:38:31.472Z,97253.55
2023-07-01T21:41:33.085Z,97254.00
2023-07-01T21:44:35.651Z,97253.96
2023-07-01T21:47:41.612Z,97257.74
2023-07-01T21:50:45.170Z,97261.52
2023-07-01T21:53:49.454Z,97260.09
2023-07-01T21:56:51.116Z,97260.43
2023-07-01T21:59:52.781Z,97256.86
2023-07-01T22:02:55.259Z,97257.53
2023-07-01T22:05:57.114Z,97250.95
2023-07-01T22:08:58.659Z,97250.86
2023-07-01T22:12:00.490Z,97248.55
2023-07-01T22:15:02.026Z,97250.48
2023-07-01T22:18:03.691Z,97246.29
2023-07-01T22:21:05.979Z,97243.45
2023-07-01T22:24:07.651Z,97240.38
2023-07-01T22:27:09.516Z,97238.02
2023-07-01T22:30:11.609Z,97235.77
2023-07-01T22:33:13.211Z,97241.30
2023-07-01T22:36:14.876Z,97233.86
2023-07-01T22:39:16.446Z,97230.67
2023-07-01T22:42:17.957Z,97227.67
2023-07-01T22:45:19.586Z,97228.63
2023-07-01T22:48:22.148Z,97229.04
2023-07-01T22:51:23.708Z,97229.46
2023-07-01T22:54:25.241Z,97224.67
2023-07-01T22:57:26.845Z,97217.77
2023-07-01T23:00:28.488Z,97216.00
2023-07-01T23:03:30.285Z,97211.33
2023-07-01T23:06:31.933Z,97211.23
2023-07-01T23:09:33.556Z,97207.48
2023-07-01T23:12:35.529Z,97208.67
2023-07-01T23:15:38.229Z,97204.99
2023-07-01T23:18:39.757Z,97204.05
2023-07-01T23:21:41.337Z,97201.35
2023-07-01T23:24:46.313Z,97196.02
2023-07-01T23:27:48.201Z,97193.63
2023-07-01T23:30:51.535Z,97192.05
2023-07-01T23:33:53.381Z,97192.52
2023-07-01T23:36:55.219Z,97192.39
2023-07-01T23:39:56.741Z,97187.05
2023-07-01T23:42:58.315Z,97188.90
2023-07-01T23:46:00.465Z,97190.15
2023-07-01T23:49:02.771Z,97188.87
2023-07-01T23:52:04.557Z,97189.03
2023-07-01T23:55:06.559Z,97190.23
2023-07-01T23:58:08.132Z,97188.31
